Toledo Express Airport
KTOL : now visible

Airfield :











YOU CAN JOIN US ON...

 
LOGIN :

Register | Disclaimer

   EN    FR    IT 

 









Legend :    VFR   Marginal VFR   IFR   Intensive IFR   Very Intensive IFR
Visi :
Ceiling :
>= 8 km
>= 3000ft
5 to 8 km
1000 to 3000 ft
1500m to 5 km
500 to 1000 ft
800 to 1500m
200 to 500 ft
< 800m
< 200 ft
Symbols :   Thunderstorms  Fog  Heavy snow  Heavy precipitations  Wind > 20 kt






- Airport Elevation : 683 ft
- IATA code : TOL


KTOL - Toledo Express

CURRENT METAR :
  • 251852Z 11007KT 080V140 10SM SCT047 BKN060 OVC100 23/16 A3004 RMK AO2 RAE03B34E45 SLP170 P0000 T02280161

EXPIRED METARs :
  • 251752Z 11008KT 8SM -RA SCT021 BKN043 OVC075 21/16 A3007 RMK AO2 SLP180 P0001 60001 T02060161 10222 20172 58011
  • 251652Z 12007KT 090V150 10SM -RA SCT027 BKN033 OVC090 21/16 A3009 RMK AO2 RAB03 SLP187 P0000 T02110156

TAF KTOL
Valid from the 25 at 18:00 until the 26 at 18:00 UTC


251720Z 2518/2618 12010KT P6SM BKN035
FM252000 13010KT P6SM SCT050
FM260100 15009KT P6SM VCTS BKN035CB
PROB30 2603/2605 2SM -TSRA BKN015CB
FM260500 18011KT P6SM BKN035
FM261700 19012G22KT P6SM BKN035
KZOB FIR / North America



MET'MAP, your aeronautical weather chart ! - Copyright ORBIFLY December 2007 - Disclaimer

ORBIFLY MET'MAP TEAM :

Programming & Development : Alexandra Zaïnal
Original concept : Baudouin d'Aumeries
Technical & hardware support : Manuel Goepfert
Assistance : Marc-Olivier Méhu

Contact : metmap@orbifly.com




SOURCES & CREDITS :

   NOAA       Earth
Advisory